createdAt,value
2019-03-29T00:00:32.233Z,18.73
2019-03-29T00:03:03.975Z,18.69
2019-03-29T00:05:31.958Z,18.66
2019-03-29T00:07:59.919Z,18.51
2019-03-29T00:10:27.963Z,18.57
2019-03-29T00:12:56.976Z,18.57
2019-03-29T00:15:25.163Z,18.74
2019-03-29T00:17:53.181Z,18.74
2019-03-29T00:20:21.498Z,18.71
2019-03-29T00:22:49.504Z,18.69
2019-03-29T00:25:17.496Z,18.68
2019-03-29T00:27:45.578Z,18.67
2019-03-29T00:30:13.657Z,18.66
2019-03-29T00:32:41.990Z,18.74
2019-03-29T00:35:10.100Z,18.63
2019-03-29T00:37:38.169Z,18.68
2019-03-29T00:40:14.554Z,18.71
2019-03-29T00:42:41.435Z,18.82
2019-03-29T00:45:09.556Z,18.80
2019-03-29T00:47:37.533Z,18.78
2019-03-29T00:50:06.324Z,18.72
2019-03-29T00:52:35.112Z,18.75
2019-03-29T00:55:03.139Z,18.75
2019-03-29T00:57:31.206Z,18.69
2019-03-29T00:59:59.239Z,18.72
2019-03-29T01:02:27.498Z,18.73
2019-03-29T01:04:55.881Z,18.56
2019-03-29T01:07:24.008Z,18.70
2019-03-29T01:09:52.072Z,18.75
2019-03-29T01:12:20.138Z,18.83
2019-03-29T01:14:48.143Z,18.72
2019-03-29T01:17:20.464Z,18.70
2019-03-29T01:19:53.374Z,18.55
2019-03-29T01:22:21.374Z,18.51
2019-03-29T01:24:49.656Z,18.66
2019-03-29T01:27:19.124Z,18.71
2019-03-29T01:29:47.360Z,18.69
2019-03-29T01:32:15.472Z,18.62
2019-03-29T01:34:43.660Z,18.62
2019-03-29T01:37:11.724Z,18.34
2019-03-29T01:39:39.686Z,17.88
2019-03-29T01:42:07.794Z,18.46
2019-03-29T01:44:35.794Z,18.58
2019-03-29T01:47:04.049Z,18.72
2019-03-29T01:49:32.533Z,18.64
2019-03-29T01:52:00.611Z,18.55
2019-03-29T01:54:28.677Z,18.49
2019-03-29T01:57:14.067Z,18.67
2019-03-29T01:59:42.340Z,18.62
2019-03-29T02:02:11.219Z,18.64
2019-03-29T02:04:39.291Z,18.61
2019-03-29T02:07:07.283Z,18.60
2019-03-29T02:09:35.270Z,18.68
2019-03-29T02:12:03.574Z,18.65
2019-03-29T02:14:31.562Z,18.72
2019-03-29T02:16:59.783Z,18.74
2019-03-29T02:19:27.774Z,18.76
2019-03-29T02:21:55.782Z,18.67
2019-03-29T02:24:24.059Z,18.65
2019-03-29T02:26:52.226Z,18.61
2019-03-29T02:29:20.240Z,18.62
2019-03-29T02:31:54.288Z,18.68
2019-03-29T02:34:22.292Z,18.70
2019-03-29T02:36:50.340Z,18.64
2019-03-29T02:39:18.315Z,18.63
2019-03-29T02:41:46.874Z,18.65
2019-03-29T02:44:15.162Z,18.67
2019-03-29T02:46:43.159Z,18.67
2019-03-29T02:49:12.725Z,18.62
2019-03-29T02:51:40.886Z,18.66
2019-03-29T02:54:08.903Z,18.75
2019-03-29T02:56:37.062Z,18.64
2019-03-29T02:59:05.156Z,18.67
2019-03-29T03:01:33.224Z,18.69
2019-03-29T03:04:01.317Z,18.64
2019-03-29T03:06:29.401Z,18.64
2019-03-29T03:09:13.298Z,18.67
2019-03-29T03:11:34.227Z,18.66
2019-03-29T03:14:02.190Z,18.48
2019-03-29T03:16:30.195Z,18.64
2019-03-29T03:18:58.195Z,18.73
2019-03-29T03:21:26.260Z,18.67
2019-03-29T03:23:54.266Z,18.61
2019-03-29T03:26:22.287Z,18.53
2019-03-29T03:28:50.274Z,18.60
2019-03-29T03:31:18.279Z,18.60
2019-03-29T03:33:46.291Z,18.43
2019-03-29T03:36:14.381Z,18.52
2019-03-29T03:38:43.574Z,18.63
2019-03-29T03:41:11.583Z,18.65
2019-03-29T03:43:39.558Z,18.58
2019-03-29T03:46:07.572Z,18.52
2019-03-29T03:48:37.101Z,18.33
2019-03-29T03:51:11.731Z,18.35
2019-03-29T03:53:39.328Z,18.43
2019-03-29T03:56:07.323Z,17.82
2019-03-29T03:58:35.316Z,18.32
2019-03-29T04:01:03.412Z,18.45
2019-03-29T04:03:31.455Z,18.32
2019-03-29T04:05:59.460Z,18.31
2019-03-29T04:08:27.677Z,18.50
2019-03-29T04:10:55.719Z,18.56
2019-03-29T04:13:23.739Z,18.57
2019-03-29T04:15:51.790Z,18.49
2019-03-29T04:18:19.782Z,18.50
2019-03-29T04:20:48.085Z,18.42
2019-03-29T04:23:16.091Z,17.83
2019-03-29T04:25:44.092Z,18.23
2019-03-29T04:28:22.567Z,18.36
2019-03-29T04:30:50.653Z,18.37
2019-03-29T04:33:18.711Z,18.16
2019-03-29T04:35:46.747Z,18.31
2019-03-29T04:38:15.174Z,18.41
2019-03-29T04:40:43.193Z,18.38
2019-03-29T04:43:11.241Z,18.57
2019-03-29T04:45:39.239Z,18.42
2019-03-29T04:48:07.324Z,18.51
2019-03-29T04:50:35.446Z,18.44
2019-03-29T04:53:03.508Z,18.34
2019-03-29T04:55:31.519Z,18.33
2019-03-29T04:57:59.493Z,18.37
2019-03-29T05:00:27.486Z,18.34
2019-03-29T05:02:55.491Z,18.39
2019-03-29T05:05:35.492Z,18.45
2019-03-29T05:08:02.215Z,18.43
2019-03-29T05:10:30.219Z,18.53
2019-03-29T05:12:59.735Z,18.52
2019-03-29T05:15:27.871Z,18.50
2019-03-29T05:17:55.866Z,18.53
2019-03-29T05:20:23.891Z,18.57
2019-03-29T05:22:51.956Z,18.59
2019-03-29T05:25:20.231Z,18.60
2019-03-29T05:27:48.285Z,18.63
2019-03-29T05:30:16.346Z,18.71
2019-03-29T05:32:44.508Z,18.55
2019-03-29T05:35:12.579Z,18.60
2019-03-29T05:37:41.823Z,18.62
2019-03-29T05:40:33.971Z,18.72
2019-03-29T05:42:50.614Z,18.60
2019-03-29T05:45:18.614Z,18.64
2019-03-29T05:47:49.727Z,18.64
2019-03-29T05:50:17.739Z,18.78
2019-03-29T05:52:45.728Z,18.69
2019-03-29T05:55:13.705Z,18.70
2019-03-29T05:57:41.990Z,18.81
2019-03-29T06:00:11.848Z,18.79
2019-03-29T06:02:39.831Z,18.69
2019-03-29T06:05:07.823Z,18.72
2019-03-29T06:07:35.831Z,18.85
2019-03-29T06:10:04.360Z,18.74
2019-03-29T06:12:41.899Z,18.84
2019-03-29T06:15:09.486Z,18.87
2019-03-29T06:17:47.923Z,18.71
2019-03-29T06:20:07.242Z,18.84
2019-03-29T06:22:35.475Z,18.98
2019-03-29T06:25:03.499Z,19.11
2019-03-29T06:27:31.567Z,19.07
2019-03-29T06:29:59.575Z,18.86
2019-03-29T06:32:27.598Z,18.48
2019-03-29T06:34:55.591Z,18.83
2019-03-29T06:37:23.584Z,18.83
2019-03-29T06:39:51.567Z,18.73
2019-03-29T06:42:19.565Z,18.69
2019-03-29T06:44:47.563Z,18.71
2019-03-29T06:47:15.658Z,18.35
2019-03-29T06:49:45.310Z,18.20
2019-03-29T06:52:16.159Z,18.19
2019-03-29T06:54:44.199Z,18.23
2019-03-29T06:57:12.259Z,18.20
2019-03-29T06:59:40.235Z,18.18
2019-03-29T07:02:08.229Z,18.22
2019-03-29T07:04:36.214Z,18.47
2019-03-29T07:07:04.237Z,18.29
2019-03-29T07:09:32.214Z,18.26
2019-03-29T07:12:00.216Z,18.23
2019-03-29T07:14:29.259Z,18.25
2019-03-29T07:16:57.260Z,18.23
2019-03-29T07:19:25.242Z,18.17
2019-03-29T07:21:53.495Z,18.16
2019-03-29T07:24:21.758Z,18.20
2019-03-29T07:26:51.265Z,18.23
2019-03-29T07:29:24.181Z,18.05
2019-03-29T07:31:53.304Z,18.19
2019-03-29T07:34:21.419Z,18.05
2019-03-29T07:36:49.415Z,18.21
2019-03-29T07:39:17.388Z,18.15
2019-03-29T07:41:45.399Z,17.83
2019-03-29T07:44:13.375Z,18.41
2019-03-29T07:46:41.397Z,18.23
2019-03-29T07:49:09.644Z,18.36
2019-03-29T07:51:37.821Z,18.26
2019-03-29T07:54:05.838Z,18.28
2019-03-29T07:56:33.955Z,18.25
2019-03-29T07:59:01.936Z,18.22
2019-03-29T08:01:32.353Z,18.32
2019-03-29T08:04:10.340Z,18.50
2019-03-29T08:06:37.126Z,17.80
2019-03-29T08:09:06.089Z,18.37
2019-03-29T08:11:45.553Z,18.34
2019-03-29T08:14:04.082Z,18.31
2019-03-29T08:16:32.105Z,18.45
2019-03-29T08:19:00.162Z,18.42
2019-03-29T08:21:28.283Z,18.42
2019-03-29T08:23:56.292Z,17.78
2019-03-29T08:26:24.316Z,18.41
2019-03-29T08:28:52.342Z,18.42
2019-03-29T08:31:20.327Z,18.42
2019-03-29T08:33:48.387Z,18.44
2019-03-29T08:36:16.442Z,18.44
2019-03-29T08:38:44.484Z,18.40
2019-03-29T08:41:14.896Z,18.52
2019-03-29T08:43:45.807Z,18.46
2019-03-29T08:46:13.823Z,18.29
2019-03-29T08:48:41.923Z,18.54
2019-03-29T08:51:09.907Z,18.65
2019-03-29T08:53:37.958Z,18.63
2019-03-29T08:56:06.045Z,18.61
2019-03-29T08:58:34.216Z,18.67
2019-03-29T09:01:02.212Z,18.75
2019-03-29T09:03:30.217Z,18.79
2019-03-29T09:05:58.211Z,18.82
2019-03-29T09:08:26.190Z,18.84
2019-03-29T09:10:54.435Z,18.89
2019-03-29T09:13:22.478Z,18.91
2019-03-29T09:15:50.482Z,18.96
2019-03-29T09:18:25.784Z,18.92
2019-03-29T09:20:52.286Z,18.98
2019-03-29T09:23:20.307Z,18.98
2019-03-29T09:25:48.304Z,19.07
2019-03-29T09:28:16.290Z,18.99
2019-03-29T09:30:44.275Z,18.98
2019-03-29T09:33:12.270Z,19.06
2019-03-29T09:35:42.763Z,19.08
2019-03-29T09:38:10.015Z,18.61
2019-03-29T09:40:38.104Z,19.23
2019-03-29T09:43:07.621Z,19.22
2019-03-29T09:45:35.850Z,19.24
2019-03-29T09:48:03.843Z,19.27
2019-03-29T09:50:31.832Z,19.32
2019-03-29T09:53:05.701Z,19.30
2019-03-29T09:55:36.385Z,19.37
2019-03-29T09:58:04.623Z,19.43
2019-03-29T10:00:32.602Z,19.05
2019-03-29T10:03:00.578Z,19.43
2019-03-29T10:05:31.373Z,19.46
2019-03-29T10:07:58.275Z,19.82
2019-03-29T10:10:26.259Z,19.63
2019-03-29T10:12:54.518Z,19.52
2019-03-29T10:15:22.642Z,19.54
2019-03-29T10:17:50.636Z,19.60
2019-03-29T10:20:18.640Z,19.61
2019-03-29T10:22:46.646Z,19.65
2019-03-29T10:25:19.763Z,19.68
2019-03-29T10:27:50.806Z,19.66
2019-03-29T10:30:23.115Z,19.68
2019-03-29T10:32:51.176Z,19.67
2019-03-29T10:35:19.187Z,19.71
2019-03-29T10:37:47.205Z,19.73
2019-03-29T10:40:15.267Z,19.76
2019-03-29T10:42:56.679Z,19.79
2019-03-29T10:45:12.962Z,19.84
2019-03-29T10:47:43.974Z,19.58
2019-03-29T10:50:10.762Z,19.93
2019-03-29T10:52:38.766Z,19.70
2019-03-29T10:55:06.866Z,19.59
2019-03-29T10:57:34.916Z,20.07
2019-03-29T11:00:04.829Z,20.11
2019-03-29T11:02:40.286Z,20.09
2019-03-29T11:05:08.262Z,20.06
2019-03-29T11:07:36.419Z,20.07
2019-03-29T11:10:04.453Z,20.16
2019-03-29T11:12:32.686Z,20.12
2019-03-29T11:15:00.724Z,20.08
2019-03-29T11:17:28.699Z,20.11
2019-03-29T11:19:56.693Z,20.08
2019-03-29T11:22:24.682Z,19.42
2019-03-29T11:24:52.655Z,20.19
2019-03-29T11:27:22.493Z,20.26
2019-03-29T11:29:50.396Z,20.22
2019-03-29T11:32:18.646Z,20.27
2019-03-29T11:35:04.123Z,20.29
2019-03-29T11:37:32.111Z,20.32
2019-03-29T11:40:00.120Z,20.35
2019-03-29T11:42:28.112Z,20.37
2019-03-29T11:44:56.132Z,20.35
2019-03-29T11:47:24.116Z,20.44
2019-03-29T11:49:52.857Z,20.49
2019-03-29T11:52:21.014Z,20.44
2019-03-29T11:54:49.013Z,20.51
2019-03-29T11:57:17.027Z,20.58
2019-03-29T11:59:45.062Z,20.55
2019-03-29T12:02:13.039Z,20.68
2019-03-29T12:04:41.034Z,20.59
2019-03-29T12:07:10.895Z,20.65
2019-03-29T12:09:46.450Z,20.67
2019-03-29T12:12:14.440Z,20.75
2019-03-29T12:14:42.711Z,20.71
2019-03-29T12:17:10.961Z,20.74
2019-03-29T12:19:38.998Z,20.66
2019-03-29T12:22:07.080Z,20.62
2019-03-29T12:24:35.080Z,20.45
2019-03-29T12:27:03.155Z,20.67
2019-03-29T12:29:31.258Z,20.72
2019-03-29T12:31:59.243Z,20.10
2019-03-29T12:34:27.239Z,20.79
2019-03-29T12:36:55.551Z,20.78
2019-03-29T12:39:23.554Z,20.73
2019-03-29T12:41:51.645Z,20.80
2019-03-29T12:44:28.415Z,20.79
2019-03-29T12:46:56.439Z,20.93
2019-03-29T12:49:36.450Z,20.81
2019-03-29T12:52:04.431Z,21.02
2019-03-29T12:54:32.428Z,21.03
2019-03-29T12:57:50.961Z,21.01
2019-03-29T13:00:19.006Z,20.90
2019-03-29T13:02:48.675Z,21.03
2019-03-29T13:05:41.560Z,21.08
2019-03-29T13:08:31.357Z,21.11
2019-03-29T13:11:16.922Z,20.96
2019-03-29T13:14:09.448Z,21.03
2019-03-29T13:16:28.769Z,20.93
2019-03-29T13:18:56.803Z,21.14
2019-03-29T13:21:27.274Z,21.20
2019-03-29T13:23:57.740Z,21.27
2019-03-29T13:26:25.752Z,21.31
2019-03-29T13:28:53.758Z,20.70
2019-03-29T13:31:21.736Z,21.25
2019-03-29T13:33:49.730Z,21.31
2019-03-29T13:36:17.747Z,21.36
2019-03-29T13:38:45.730Z,21.36
2019-03-29T13:41:17.523Z,21.34
2019-03-29T13:43:49.532Z,21.29
2019-03-29T13:46:17.778Z,21.38
2019-03-29T13:48:49.199Z,20.18
2019-03-29T13:51:17.215Z,21.47
2019-03-29T13:53:54.420Z,21.53
2019-03-29T13:56:23.534Z,21.50
2019-03-29T13:58:53.652Z,21.41
2019-03-29T14:01:21.691Z,21.52
2019-03-29T14:04:16.582Z,21.28
2019-03-29T14:06:44.627Z,21.53
2019-03-29T14:09:12.595Z,21.46
2019-03-29T14:11:40.564Z,21.45
2019-03-29T14:14:12.801Z,21.54
2019-03-29T14:16:43.255Z,21.42
2019-03-29T14:19:11.257Z,21.45
2019-03-29T14:21:39.244Z,21.46
2019-03-29T14:24:07.727Z,21.42
2019-03-29T14:26:35.764Z,21.07
2019-03-29T14:29:03.781Z,21.17
2019-03-29T14:31:31.923Z,21.29
2019-03-29T14:33:59.943Z,21.26
2019-03-29T14:36:28.032Z,21.38
2019-03-29T14:38:56.106Z,21.46
2019-03-29T14:41:24.098Z,21.53
2019-03-29T14:43:52.163Z,21.48
2019-03-29T14:46:20.262Z,21.38
2019-03-29T14:48:48.280Z,21.55
2019-03-29T14:51:18.290Z,21.23
2019-03-29T14:53:50.369Z,21.99
2019-03-29T14:56:16.098Z,21.78
2019-03-29T14:58:44.098Z,21.75
2019-03-29T15:01:12.394Z,21.73
2019-03-29T15:03:40.375Z,21.78
2019-03-29T15:06:08.414Z,21.76
2019-03-29T15:08:36.458Z,21.75
2019-03-29T15:11:04.564Z,21.78
2019-03-29T15:13:32.604Z,21.82
2019-03-29T15:16:00.746Z,21.80
2019-03-29T15:18:28.788Z,21.83
2019-03-29T15:20:56.758Z,21.88
2019-03-29T15:23:24.806Z,21.77
2019-03-29T15:25:52.787Z,21.65
2019-03-29T15:28:20.798Z,21.75
2019-03-29T15:30:52.117Z,21.76
2019-03-29T15:33:21.860Z,21.80
2019-03-29T15:35:49.611Z,21.72
2019-03-29T15:38:17.627Z,21.95
2019-03-29T15:40:45.908Z,21.97
2019-03-29T15:43:13.878Z,22.05
2019-03-29T15:45:41.949Z,22.01
2019-03-29T15:48:10.061Z,21.87
2019-03-29T15:50:38.190Z,21.85
2019-03-29T15:59:02.647Z,21.59
2019-03-29T16:01:30.729Z,21.83
2019-03-29T16:03:58.707Z,21.87
2019-03-29T16:06:26.679Z,21.86
2019-03-29T16:08:54.686Z,21.72
2019-03-29T16:11:22.749Z,21.78
2019-03-29T16:13:50.764Z,21.96
2019-03-29T16:16:18.871Z,22.03
2019-03-29T16:18:52.789Z,21.99
2019-03-29T16:21:20.844Z,21.92
2019-03-29T16:23:48.849Z,21.92
2019-03-29T16:26:16.864Z,21.78
2019-03-29T16:28:44.950Z,21.82
2019-03-29T16:31:13.948Z,21.80
2019-03-29T16:33:41.975Z,21.87
2019-03-29T16:36:09.951Z,21.87
2019-03-29T16:38:38.295Z,21.88
2019-03-29T16:41:06.307Z,21.87
2019-03-29T16:43:34.307Z,21.83
2019-03-29T16:46:02.334Z,21.89
2019-03-29T16:48:30.375Z,21.92
2019-03-29T16:50:58.369Z,21.95
2019-03-29T16:53:33.305Z,21.92
2019-03-29T16:56:06.263Z,21.85
2019-03-29T16:58:35.472Z,21.80
2019-03-29T17:01:04.524Z,21.81
2019-03-29T17:03:32.627Z,21.73
2019-03-29T17:06:00.800Z,21.74
2019-03-29T17:08:28.914Z,21.68
2019-03-29T17:10:57.156Z,21.71
2019-03-29T17:13:25.406Z,21.70
2019-03-29T17:16:01.585Z,21.46
2019-03-29T17:27:52.770Z,21.61
2019-03-29T17:30:31.147Z,21.61
2019-03-29T17:32:59.440Z,21.65
2019-03-29T17:35:27.549Z,21.67
2019-03-29T17:37:55.699Z,21.66
2019-03-29T17:40:23.812Z,21.60
2019-03-29T17:42:52.069Z,21.55
2019-03-29T17:45:20.554Z,21.57
2019-03-29T17:47:48.743Z,21.58
2019-03-29T17:50:16.846Z,21.54
2019-03-29T17:52:44.906Z,21.56
2019-03-29T17:55:13.075Z,21.55
2019-03-29T17:57:41.238Z,21.56
2019-03-29T18:00:10.944Z,21.54
2019-03-29T18:02:39.008Z,21.53
2019-03-29T18:05:07.130Z,20.92
2019-03-29T18:07:35.202Z,21.44
2019-03-29T18:10:03.278Z,21.45
2019-03-29T18:12:31.586Z,21.46
2019-03-29T18:14:59.781Z,21.25
2019-03-29T18:17:28.029Z,21.44
2019-03-29T18:19:56.158Z,21.36
2019-03-29T18:22:24.215Z,21.40
2019-03-29T18:24:52.349Z,21.20
2019-03-29T18:27:20.423Z,20.77
2019-03-29T18:29:48.572Z,21.07
2019-03-29T18:32:16.665Z,21.10
2019-03-29T18:34:44.813Z,21.14
2019-03-29T18:37:13.168Z,20.78
2019-03-29T18:39:41.361Z,21.30
2019-03-29T18:42:09.408Z,21.17
2019-03-29T18:44:37.455Z,21.08
2019-03-29T18:47:05.505Z,21.08
2019-03-29T18:49:33.572Z,21.12
2019-03-29T18:52:01.746Z,21.09
2019-03-29T18:54:29.808Z,21.07
2019-03-29T18:56:58.045Z,21.06
2019-03-29T18:59:26.173Z,20.49
2019-03-29T19:01:54.334Z,21.01
2019-03-29T19:04:22.459Z,20.96
2019-03-29T19:06:50.541Z,20.96
2019-03-29T19:09:18.694Z,20.96
2019-03-29T19:11:46.821Z,20.79
2019-03-29T19:14:14.892Z,20.86
2019-03-29T19:16:43.106Z,20.51
2019-03-29T19:19:11.230Z,20.77
2019-03-29T19:21:39.385Z,20.89
2019-03-29T19:24:07.600Z,20.76
2019-03-29T19:26:36.130Z,20.75
2019-03-29T19:29:04.280Z,20.80
2019-03-29T19:31:32.373Z,20.76
2019-03-29T19:34:00.494Z,20.71
2019-03-29T19:36:28.627Z,20.57
2019-03-29T19:38:56.856Z,20.43
2019-03-29T19:41:26.061Z,19.99
2019-03-29T19:43:54.238Z,20.09
2019-03-29T19:46:22.379Z,20.18
2019-03-29T19:48:50.469Z,20.39
2019-03-29T19:51:18.555Z,20.47
2019-03-29T19:53:46.747Z,20.53
2019-03-29T19:56:15.025Z,20.45
2019-03-29T19:58:43.139Z,20.32
2019-03-29T20:01:11.214Z,20.29
2019-03-29T20:03:39.378Z,20.30
2019-03-29T20:06:07.480Z,20.31
2019-03-29T20:08:36.085Z,20.34
2019-03-29T20:11:04.319Z,20.37
2019-03-29T20:13:34.327Z,20.30
2019-03-29T20:16:03.643Z,20.00
2019-03-29T20:18:31.950Z,19.97
2019-03-29T20:21:00.426Z,20.03
2019-03-29T20:23:28.609Z,20.18
2019-03-29T20:25:56.671Z,20.15
2019-03-29T20:28:24.740Z,19.98
2019-03-29T20:30:52.749Z,19.79
2019-03-29T20:33:20.858Z,19.75
2019-03-29T20:35:49.234Z,19.79
2019-03-29T20:38:17.443Z,19.74
2019-03-29T20:40:45.909Z,19.68
2019-03-29T20:43:14.047Z,19.63
2019-03-29T20:45:43.155Z,19.68
2019-03-29T20:48:11.333Z,19.73
2019-03-29T20:50:40.018Z,19.83
2019-03-29T20:53:08.344Z,19.94
2019-03-29T20:55:36.462Z,19.92
2019-03-29T20:58:04.533Z,19.87
2019-03-29T21:00:37.004Z,19.62
2019-03-29T21:03:05.165Z,19.51
2019-03-29T21:05:33.249Z,19.57
2019-03-29T21:08:01.593Z,19.58
2019-03-29T21:10:29.713Z,19.73
2019-03-29T21:12:57.986Z,19.61
2019-03-29T21:15:26.074Z,19.41
2019-03-29T21:17:56.970Z,19.36
2019-03-29T21:20:24.329Z,19.40
2019-03-29T21:22:52.390Z,19.32
2019-03-29T21:25:20.972Z,19.29
2019-03-29T21:27:51.748Z,19.22
2019-03-29T21:30:20.892Z,19.24
2019-03-29T21:32:49.141Z,19.15
2019-03-29T21:35:20.466Z,19.08
2019-03-29T21:37:49.535Z,19.03
2019-03-29T21:40:18.099Z,18.99
2019-03-29T21:42:46.471Z,18.92
2019-03-29T21:45:28.045Z,18.93
2019-03-29T21:47:45.002Z,18.92
2019-03-29T21:50:13.089Z,18.88
2019-03-29T21:52:41.421Z,18.91
2019-03-29T21:55:09.455Z,18.87
2019-03-29T21:57:37.435Z,18.89
2019-03-29T22:00:06.735Z,18.85
2019-03-29T22:02:34.714Z,18.64
2019-03-29T22:05:02.711Z,18.79
2019-03-29T22:07:30.779Z,18.73
2019-03-29T22:09:58.814Z,18.59
2019-03-29T22:12:33.047Z,18.55
2019-03-29T22:14:58.323Z,18.62
2019-03-29T22:17:26.326Z,18.64
2019-03-29T22:19:54.390Z,18.55
2019-03-29T22:22:22.407Z,18.48
2019-03-29T22:24:50.406Z,18.61
2019-03-29T22:27:18.402Z,18.66
2019-03-29T22:29:46.870Z,18.61
2019-03-29T22:32:15.437Z,18.64
2019-03-29T22:34:43.405Z,18.71
2019-03-29T22:37:11.416Z,18.67
2019-03-29T22:39:39.395Z,18.45
2019-03-29T22:42:07.722Z,18.38
2019-03-29T22:44:35.707Z,18.46
2019-03-29T22:47:03.757Z,18.32
2019-03-29T22:49:33.411Z,18.36
2019-03-29T22:52:04.399Z,18.39
2019-03-29T22:54:32.801Z,18.39
2019-03-29T22:57:00.924Z,18.35
2019-03-29T22:59:29.988Z,18.35
2019-03-29T23:01:58.078Z,18.35
2019-03-29T23:04:26.042Z,18.21
2019-03-29T23:06:54.171Z,18.20
2019-03-29T23:09:22.217Z,18.21
2019-03-29T23:11:50.548Z,18.11
2019-03-29T23:14:18.526Z,17.97
2019-03-29T23:16:46.582Z,17.90
2019-03-29T23:19:15.390Z,17.83
2019-03-29T23:22:48.508Z,18.00
2019-03-29T23:25:50.622Z,18.20
2019-03-29T23:28:18.900Z,18.03
2019-03-29T23:30:46.879Z,18.16
2019-03-29T23:33:14.952Z,18.23
2019-03-29T23:35:43.155Z,18.09
2019-03-29T23:38:11.138Z,18.03
2019-03-29T23:40:39.159Z,18.08
2019-03-29T23:43:07.167Z,18.12
2019-03-29T23:45:35.150Z,18.09
2019-03-29T23:48:03.126Z,18.00
2019-03-29T23:50:31.112Z,18.06
2019-03-29T23:52:59.122Z,18.06
2019-03-29T23:55:27.127Z,17.99
2019-03-29T23:57:56.235Z,17.37
